createdAt,value
2023-06-29T04:17:33.461Z,97.80
2023-06-29T04:20:37.546Z,96.24
2023-06-29T04:23:40.152Z,94.08
2023-06-29T04:26:42.959Z,95.59
2023-06-29T04:29:45.575Z,95.53
2023-06-29T04:32:48.579Z,92.93
2023-06-29T04:35:51.196Z,91.56
2023-06-29T04:39:01.801Z,90.78
2023-06-29T04:42:05.841Z,87.91
2023-06-29T04:45:09.243Z,86.64
2023-06-29T04:48:11.748Z,87.45
2023-06-29T04:51:16.271Z,88.38
2023-06-29T04:54:18.924Z,86.80
2023-06-29T04:57:21.760Z,88.88
2023-06-29T05:00:24.267Z,86.80
2023-06-29T05:03:27.780Z,83.64
2023-06-29T05:06:30.368Z,82.70
2023-06-29T05:09:33.238Z,80.71
2023-06-29T05:12:35.793Z,77.98
2023-06-29T05:15:38.685Z,79.49
2023-06-29T05:18:41.293Z,79.01
2023-06-29T05:21:44.108Z,78.27
2023-06-29T05:24:46.579Z,68.15
2023-06-29T05:27:49.456Z,56.86
2023-06-29T05:30:52.191Z,47.89
2023-06-29T05:33:55.167Z,44.61
2023-06-29T05:37:00.070Z,44.40
2023-06-29T05:40:03.292Z,43.32
2023-06-29T05:43:05.941Z,39.33
2023-06-29T05:46:09.030Z,38.28
2023-06-29T05:49:11.571Z,35.86
2023-06-29T05:52:14.420Z,31.65
2023-06-29T05:55:17.073Z,32.00
2023-06-29T05:58:20.052Z,29.96
2023-06-29T06:01:22.774Z,33.04
2023-06-29T06:04:25.943Z,32.84
2023-06-29T06:07:32.104Z,36.77
2023-06-29T06:10:35.152Z,34.40
2023-06-29T06:13:37.755Z,32.77
2023-06-29T06:16:40.931Z,34.76
2023-06-29T06:19:44.054Z,37.00
2023-06-29T06:22:47.328Z,34.93
2023-06-29T06:25:50.095Z,32.19
2023-06-29T06:28:53.096Z,30.39
2023-06-29T06:31:56.373Z,30.19
2023-06-29T06:34:59.329Z,32.48
2023-06-29T06:38:01.859Z,34.68
2023-06-29T06:41:04.819Z,42.55
2023-06-29T06:44:07.497Z,43.16
2023-06-29T06:47:10.614Z,46.21
2023-06-29T06:50:13.243Z,50.96
2023-06-29T06:53:16.149Z,49.69
2023-06-29T06:56:18.779Z,52.06
2023-06-29T06:59:21.637Z,53.57
2023-06-29T07:02:24.587Z,53.72
2023-06-29T07:05:27.580Z,53.01
2023-06-29T07:08:31.140Z,51.44
2023-06-29T07:11:37.717Z,49.67
2023-06-29T07:14:40.520Z,53.04
2023-06-29T07:17:43.629Z,52.44
2023-06-29T07:26:57.394Z,49.62
2023-06-29T07:30:02.938Z,50.22
2023-06-29T07:33:05.572Z,49.96
2023-06-29T07:36:09.333Z,51.37
2023-06-29T07:39:12.108Z,51.34
2023-06-29T07:42:23.467Z,49.61
2023-06-29T07:45:32.980Z,47.53
2023-06-29T07:48:36.134Z,49.78
2023-06-29T07:51:38.879Z,52.82
2023-06-29T07:54:42.379Z,49.19
2023-06-29T08:00:50.716Z,48.28
2023-06-29T08:04:02.098Z,48.64
2023-06-29T08:07:10.096Z,47.16
2023-06-29T08:10:13.489Z,43.84
2023-06-29T08:13:19.319Z,42.95
2023-06-29T08:16:23.296Z,41.87
2023-06-29T08:19:25.858Z,41.69
2023-06-29T08:22:28.691Z,42.70
2023-06-29T08:25:31.225Z,42.61
2023-06-29T08:28:34.059Z,40.94
2023-06-29T08:31:36.722Z,41.05
2023-06-29T08:34:39.588Z,40.63
2023-06-29T08:37:42.317Z,39.20
2023-06-29T08:40:50.390Z,40.36
2023-06-29T08:43:53.010Z,37.20
2023-06-29T08:47:00.087Z,38.61
2023-06-29T08:50:05.621Z,35.95
2023-06-29T08:53:08.993Z,37.83
2023-06-29T08:56:13.119Z,35.36
2023-06-29T08:59:16.508Z,36.60
2023-06-29T09:02:19.430Z,39.26
2023-06-29T09:05:23.038Z,41.77
2023-06-29T09:08:25.912Z,42.31
2023-06-29T09:11:28.788Z,44.03
2023-06-29T09:14:36.672Z,47.16
2023-06-29T09:17:45.816Z,47.60
2023-06-29T09:20:51.421Z,49.39
2023-06-29T09:23:57.669Z,47.31
2023-06-29T09:27:00.876Z,47.42
2023-06-29T09:30:06.061Z,49.92
2023-06-29T09:33:11.016Z,47.57
2023-06-29T09:36:14.148Z,41.54
2023-06-29T09:39:18.868Z,40.65
2023-06-29T09:42:22.111Z,43.90
2023-06-29T09:45:29.362Z,46.23
2023-06-29T09:51:39.605Z,47.13
2023-06-29T09:54:43.220Z,43.88
2023-06-29T09:57:54.168Z,41.93
2023-06-29T10:00:59.580Z,36.94
2023-06-29T10:04:05.832Z,37.06
2023-06-29T10:07:19.614Z,37.48
2023-06-29T10:10:24.881Z,39.15
2023-06-29T10:13:30.324Z,40.47
2023-06-29T10:16:36.182Z,40.95
2023-06-29T10:19:41.157Z,42.66
2023-06-29T10:22:45.650Z,43.39
2023-06-29T10:25:50.088Z,41.14
2023-06-29T10:28:53.517Z,41.29
2023-06-29T10:31:59.878Z,40.54
2023-06-29T10:35:02.807Z,40.84
2023-06-29T10:38:13.541Z,39.57
2023-06-29T10:41:30.059Z,36.73
2023-06-29T10:44:35.792Z,35.54
2023-06-29T10:47:39.642Z,36.33
2023-06-29T10:50:44.798Z,36.42
2023-06-29T10:53:49.703Z,36.71
2023-06-29T10:57:03.561Z,37.19
2023-06-29T11:00:07.104Z,37.57
2023-06-29T11:03:11.149Z,38.84
2023-06-29T11:06:24.734Z,38.02
2023-06-29T11:09:31.687Z,34.06
2023-06-29T11:12:36.855Z,37.99
2023-06-29T11:15:39.878Z,37.29
2023-06-29T11:18:49.285Z,37.46
2023-06-29T11:21:55.374Z,37.42
2023-06-29T11:24:58.265Z,38.97
2023-06-29T11:28:02.075Z,40.14
2023-06-29T11:39:14.118Z,36.94
2023-06-29T11:42:24.746Z,37.34
2023-06-29T11:45:27.408Z,36.70
2023-06-29T11:48:31.279Z,37.59
2023-06-29T11:51:35.421Z,37.99
2023-06-29T11:54:39.742Z,39.82
2023-06-29T11:57:44.925Z,42.09
2023-06-29T12:00:56.980Z,42.93
2023-06-29T12:03:59.966Z,41.91
2023-06-29T12:07:03.692Z,41.42
2023-06-29T12:10:12.709Z,39.81
2023-06-29T12:13:16.277Z,40.69
2023-06-29T12:19:32.346Z,40.50
2023-06-29T12:22:35.365Z,37.98
2023-06-29T12:25:47.404Z,38.22
2023-06-29T12:28:50.572Z,38.05
2023-06-29T12:31:59.798Z,38.78
2023-06-29T12:35:02.824Z,38.20
2023-06-29T12:38:05.951Z,37.42
2023-06-29T12:41:08.893Z,37.28
2023-06-29T12:44:11.485Z,37.94
2023-06-29T12:47:14.312Z,38.61
2023-06-29T12:50:18.741Z,39.17
2023-06-29T12:53:21.703Z,40.29
2023-06-29T12:56:26.336Z,39.74
2023-06-29T12:59:29.245Z,39.71
2023-06-29T13:02:33.075Z,37.99
2023-06-29T13:05:36.060Z,40.48
2023-06-29T13:08:38.583Z,41.00
2023-06-29T13:11:45.495Z,40.86
2023-06-29T13:14:50.892Z,39.93
2023-06-29T13:17:53.979Z,40.02
2023-06-29T13:20:56.556Z,40.46
2023-06-29T13:23:59.527Z,39.69
2023-06-29T13:27:04.564Z,39.95
2023-06-29T13:30:08.852Z,39.79
2023-06-29T13:33:11.412Z,39.61
2023-06-29T13:36:14.391Z,39.05
2023-06-29T13:39:16.920Z,38.20
2023-06-29T13:42:19.708Z,37.81
2023-06-29T13:45:22.607Z,39.01
2023-06-29T13:48:25.616Z,38.79
2023-06-29T13:51:30.112Z,39.81
2023-06-29T13:54:32.971Z,40.81
2023-06-29T13:57:35.510Z,40.00
2023-06-29T14:00:38.370Z,40.42
2023-06-29T14:03:41.261Z,40.91
2023-06-29T14:06:44.400Z,41.53
2023-06-29T14:09:47.267Z,41.42
2023-06-29T14:12:49.820Z,41.55
2023-06-29T14:15:52.596Z,40.18
2023-06-29T14:18:55.856Z,42.02
2023-06-29T14:21:58.694Z,40.25
2023-06-29T14:25:01.250Z,39.48
2023-06-29T14:28:04.276Z,40.33
2023-06-29T14:31:07.102Z,41.69
2023-06-29T14:34:10.118Z,40.09
2023-06-29T14:37:12.771Z,40.10
2023-06-29T14:40:15.582Z,39.11
2023-06-29T14:43:19.346Z,39.00
2023-06-29T14:46:22.348Z,39.60
2023-06-29T14:49:25.049Z,40.07
2023-06-29T14:52:28.021Z,38.10
2023-06-29T14:55:30.624Z,38.48
2023-06-29T14:58:33.803Z,38.48
2023-06-29T15:01:36.420Z,39.35
2023-06-29T15:04:39.584Z,39.77
2023-06-29T15:07:42.657Z,39.29
2023-06-29T15:10:45.558Z,39.01
2023-06-29T15:13:48.121Z,39.60
2023-06-29T15:16:50.945Z,40.25
2023-06-29T15:19:54.633Z,40.59
2023-06-29T15:22:57.559Z,40.23
2023-06-29T15:26:00.137Z,40.05
